createdAt,value
2019-02-06T00:01:04.025Z,9.60
2019-02-06T00:03:33.491Z,10.63
2019-02-06T00:06:02.916Z,10.03
2019-02-06T00:08:32.151Z,9.83
2019-02-06T00:11:01.521Z,10.23
2019-02-06T00:13:31.331Z,10.98
2019-02-06T00:16:00.614Z,9.33
2019-02-06T00:18:29.971Z,10.70
2019-02-06T00:20:59.388Z,9.90
2019-02-06T00:23:28.680Z,8.73
2019-02-06T00:25:58.141Z,10.53
2019-02-06T00:28:27.542Z,10.23
2019-02-06T00:30:56.890Z,10.15
2019-02-06T00:33:26.277Z,10.45
2019-02-06T00:35:55.536Z,10.53
2019-02-06T00:38:24.808Z,11.30
2019-02-06T00:40:54.198Z,10.28
2019-02-06T00:43:23.798Z,11.45
2019-02-06T00:45:53.128Z,11.00
2019-02-06T00:48:22.389Z,11.78
2019-02-06T00:50:52.084Z,12.45
2019-02-06T00:53:21.406Z,12.93
2019-02-06T00:55:50.759Z,11.55
2019-02-06T00:58:20.299Z,14.35
2019-02-06T01:00:49.607Z,13.22
2019-02-06T01:03:19.076Z,14.18
2019-02-06T01:05:48.679Z,13.75
2019-02-06T01:08:18.126Z,8.93
2019-02-06T01:10:47.459Z,13.15
2019-02-06T01:13:16.893Z,13.70
2019-02-06T01:15:46.264Z,14.63
2019-02-06T01:18:15.587Z,15.50
2019-02-06T01:20:45.159Z,15.58
2019-02-06T01:23:16.371Z,16.45
2019-02-06T01:25:45.516Z,14.98
2019-02-06T01:28:14.891Z,15.85
2019-02-06T01:30:57.399Z,16.25
2019-02-06T01:33:26.766Z,18.12
2019-02-06T01:35:56.078Z,14.05
2019-02-06T01:38:25.419Z,17.55
2019-02-06T01:40:54.930Z,18.60
2019-02-06T01:43:24.450Z,16.80
2019-02-06T01:45:53.747Z,20.30
2019-02-06T01:48:23.135Z,19.73
2019-02-06T01:50:52.396Z,19.35
2019-02-06T01:53:21.706Z,17.77
2019-02-06T01:55:51.052Z,20.95
2019-02-06T01:58:20.638Z,22.17
2019-02-06T02:00:49.965Z,21.87
2019-02-06T02:03:19.759Z,22.70
2019-02-06T02:05:49.047Z,11.22
2019-02-06T02:08:18.354Z,18.87
2019-02-06T02:10:47.814Z,26.27
2019-02-06T02:13:17.765Z,20.02
2019-02-06T02:15:47.241Z,20.70
2019-02-06T02:18:16.760Z,27.32
2019-02-06T02:20:46.248Z,24.60
2019-02-06T02:23:15.609Z,26.52
2019-02-06T02:25:44.997Z,22.98
2019-02-06T02:28:14.831Z,20.52
2019-02-06T02:30:50.734Z,20.17
2019-02-06T02:33:20.091Z,25.57
2019-02-06T02:35:49.437Z,26.23
2019-02-06T02:38:18.831Z,20.12
2019-02-06T02:40:48.033Z,28.40
2019-02-06T02:43:17.290Z,33.02
2019-02-06T02:45:46.752Z,28.92
2019-02-06T02:48:16.044Z,31.00
2019-02-06T02:50:45.379Z,32.55
2019-02-06T02:53:14.657Z,29.27
2019-02-06T02:55:43.951Z,24.70
2019-02-06T02:58:13.245Z,31.82
2019-02-06T03:01:10.303Z,31.68
2019-02-06T03:03:47.557Z,22.73
2019-02-06T03:06:27.802Z,31.93
2019-02-06T03:08:47.805Z,31.45
2019-02-06T03:11:17.099Z,31.62
2019-02-06T03:13:46.437Z,30.92
2019-02-06T03:16:15.816Z,18.57
2019-02-06T03:18:45.109Z,30.02
2019-02-06T03:21:14.650Z,31.25
2019-02-06T03:23:43.960Z,31.25
2019-02-06T03:26:13.301Z,28.92
2019-02-06T03:28:42.828Z,27.35
2019-02-06T03:31:12.132Z,27.58
2019-02-06T03:33:41.510Z,31.95
2019-02-06T03:36:11.005Z,31.57
2019-02-06T03:38:40.464Z,29.57
2019-02-06T03:41:09.743Z,33.75
2019-02-06T03:43:39.088Z,27.20
2019-02-06T03:46:08.400Z,30.37
2019-02-06T03:48:37.677Z,30.12
2019-02-06T03:51:07.094Z,28.73
2019-02-06T03:53:36.415Z,21.25
2019-02-06T03:56:05.714Z,33.83
2019-02-06T03:58:35.098Z,33.40
2019-02-06T04:01:04.448Z,34.20
2019-02-06T04:03:33.761Z,28.20
2019-02-06T04:06:03.778Z,31.23
2019-02-06T04:08:33.076Z,30.95
2019-02-06T04:11:02.420Z,36.53
2019-02-06T04:13:31.929Z,23.77
2019-02-06T04:16:01.207Z,35.00
2019-02-06T04:18:30.504Z,37.50
2019-02-06T04:21:00.175Z,36.48
2019-02-06T04:23:29.555Z,34.90
2019-02-06T04:25:58.833Z,36.83
2019-02-06T04:28:28.462Z,38.35
2019-02-06T04:30:57.694Z,37.80
2019-02-06T04:33:27.119Z,23.12
2019-02-06T04:35:57.009Z,36.65
2019-02-06T04:38:26.408Z,38.08
2019-02-06T04:40:55.734Z,32.25
2019-02-06T04:43:25.268Z,26.17
2019-02-06T04:45:54.548Z,35.70
2019-02-06T04:48:23.817Z,32.53
2019-02-06T04:50:53.743Z,33.98
2019-02-06T04:53:23.136Z,36.60
2019-02-06T04:55:52.351Z,36.20
2019-02-06T04:58:21.823Z,29.20
2019-02-06T05:00:51.170Z,25.92
2019-02-06T05:03:20.431Z,24.90
2019-02-06T05:05:50.222Z,34.00
2019-02-06T05:08:19.592Z,35.13
2019-02-06T05:10:48.916Z,29.45
2019-02-06T05:13:37.439Z,33.50
2019-02-06T05:16:06.832Z,35.75
2019-02-06T05:18:36.278Z,19.35
2019-02-06T05:21:05.678Z,30.62
2019-02-06T05:23:34.986Z,21.40
2019-02-06T05:26:04.331Z,35.13
2019-02-06T05:28:33.753Z,33.00
2019-02-06T05:31:03.029Z,29.27
2019-02-06T05:33:32.760Z,33.90
2019-02-06T05:36:02.080Z,32.30
2019-02-06T05:38:31.626Z,32.08
2019-02-06T05:41:00.975Z,34.03
2019-02-06T05:43:30.463Z,31.48
2019-02-06T05:45:59.751Z,31.73
2019-02-06T05:48:29.521Z,31.23
2019-02-06T05:50:58.862Z,30.55
2019-02-06T05:53:28.171Z,28.12
2019-02-06T05:55:57.640Z,27.90
2019-02-06T05:58:27.047Z,27.55
2019-02-06T06:00:56.364Z,29.35
2019-02-06T06:03:25.847Z,29.57
2019-02-06T06:05:55.371Z,31.02
2019-02-06T06:08:24.541Z,29.02
2019-02-06T06:10:54.014Z,30.40
2019-02-06T06:13:23.643Z,32.08
2019-02-06T06:15:52.925Z,30.43
2019-02-06T06:18:22.299Z,31.82
2019-02-06T06:20:52.098Z,24.90
2019-02-06T06:23:21.405Z,33.55
2019-02-06T06:25:50.794Z,28.90
2019-02-06T06:28:20.327Z,30.40
2019-02-06T06:30:49.781Z,26.52
2019-02-06T06:33:19.516Z,31.62
2019-02-06T06:35:49.174Z,31.65
2019-02-06T06:38:18.569Z,29.63
2019-02-06T06:40:47.937Z,32.65
2019-02-06T06:43:17.360Z,29.32
2019-02-06T06:45:46.662Z,29.48
2019-02-06T06:48:15.984Z,29.87
2019-02-06T06:50:45.475Z,29.85
2019-02-06T06:53:14.890Z,26.90
2019-02-06T06:55:44.273Z,32.65
2019-02-06T06:58:13.667Z,32.65
2019-02-06T07:00:42.979Z,26.75
2019-02-06T07:03:12.514Z,31.20
2019-02-06T07:05:41.975Z,30.32
2019-02-06T07:08:13.424Z,24.40
2019-02-06T07:10:42.332Z,30.27
2019-02-06T07:13:11.879Z,26.80
2019-02-06T07:15:41.306Z,30.08
2019-02-06T07:18:10.750Z,29.23
2019-02-06T07:20:40.158Z,30.50
2019-02-06T07:23:09.448Z,28.85
2019-02-06T07:25:38.746Z,26.68
2019-02-06T07:28:08.238Z,31.07
2019-02-06T07:30:37.624Z,27.90
2019-02-06T07:33:07.262Z,17.07
2019-02-06T07:35:36.775Z,28.35
2019-02-06T07:38:06.125Z,30.10
2019-02-06T07:40:35.437Z,29.27
2019-02-06T07:43:05.107Z,27.77
2019-02-06T07:45:34.731Z,26.20
2019-02-06T07:48:04.595Z,28.20
2019-02-06T07:50:34.254Z,24.85
2019-02-06T07:53:03.553Z,15.45
2019-02-06T07:55:32.888Z,23.55
2019-02-06T07:58:02.274Z,27.07
2019-02-06T08:00:31.791Z,22.58
2019-02-06T08:03:01.098Z,23.90
2019-02-06T08:05:32.593Z,24.55
2019-02-06T08:08:02.105Z,22.52
2019-02-06T08:10:33.044Z,24.18
2019-02-06T08:13:02.586Z,21.50
2019-02-06T08:15:31.926Z,19.05
2019-02-06T08:18:01.658Z,23.52
2019-02-06T08:20:31.062Z,21.60
2019-02-06T08:23:00.451Z,23.15
2019-02-06T08:25:30.039Z,21.00
2019-02-06T08:27:59.629Z,20.08
2019-02-06T08:30:31.563Z,20.52
2019-02-06T08:33:00.951Z,18.65
2019-02-06T08:35:30.726Z,20.90
2019-02-06T08:38:00.223Z,21.37
2019-02-06T08:40:29.540Z,19.95
2019-02-06T08:42:59.085Z,19.12
2019-02-06T08:45:28.640Z,21.48
2019-02-06T08:47:58.006Z,17.12
2019-02-06T08:50:27.769Z,21.80
2019-02-06T08:52:57.397Z,22.37
2019-02-06T08:55:28.359Z,21.27
2019-02-06T08:57:58.250Z,22.77
2019-02-06T09:00:29.994Z,16.48
2019-02-06T09:02:59.446Z,23.35
2019-02-06T09:05:29.391Z,23.25
2019-02-06T09:07:58.940Z,21.93
2019-02-06T09:10:28.322Z,21.00
2019-02-06T09:12:57.700Z,23.38
2019-02-06T09:15:27.571Z,24.75
2019-02-06T09:17:57.162Z,27.65
2019-02-06T09:20:27.030Z,25.45
2019-02-06T09:22:56.437Z,26.15
2019-02-06T09:25:25.802Z,25.12
2019-02-06T09:27:55.186Z,25.37
2019-02-06T09:30:26.452Z,23.22
2019-02-06T09:32:56.833Z,24.05
2019-02-06T09:35:26.544Z,25.23
2019-02-06T09:37:55.999Z,23.15
2019-02-06T09:40:27.383Z,24.57
2019-02-06T09:42:56.781Z,25.57
2019-02-06T09:45:26.467Z,25.17
2019-02-06T09:47:56.948Z,25.27
2019-02-06T09:50:34.588Z,26.57
2019-02-06T09:53:03.933Z,24.67
2019-02-06T09:55:36.328Z,22.93
2019-02-06T09:58:06.648Z,24.60
2019-02-06T10:00:39.318Z,25.30
2019-02-06T10:03:08.867Z,20.65
2019-02-06T10:05:38.351Z,18.05
2019-02-06T10:08:07.690Z,24.32
2019-02-06T10:10:37.039Z,25.57
2019-02-06T10:13:06.707Z,22.80
2019-02-06T10:15:37.600Z,23.22
2019-02-06T10:18:07.281Z,24.63
2019-02-06T10:20:46.001Z,23.60
2019-02-06T10:23:15.448Z,21.85
2019-02-06T10:25:44.879Z,21.68
2019-02-06T10:28:14.269Z,23.45
2019-02-06T10:30:49.275Z,24.85
2019-02-06T10:33:19.300Z,19.40
2019-02-06T10:35:51.791Z,16.80
2019-02-06T10:38:20.171Z,21.60
2019-02-06T10:40:49.564Z,23.65
2019-02-06T10:43:30.905Z,23.77
2019-02-06T10:45:50.215Z,20.15
2019-02-06T10:48:19.624Z,21.62
2019-02-06T10:50:51.186Z,19.42
2019-02-06T10:53:20.761Z,24.92
2019-02-06T10:55:50.158Z,21.90
2019-02-06T10:58:19.974Z,21.75
2019-02-06T11:00:55.108Z,23.40
2019-02-06T11:03:24.573Z,19.05
2019-02-06T11:05:53.961Z,24.82
2019-02-06T11:08:23.369Z,18.52
2019-02-06T11:10:52.730Z,22.42
2019-02-06T11:13:22.144Z,23.60
2019-02-06T11:15:51.530Z,23.07
2019-02-06T11:18:21.174Z,21.70
2019-02-06T11:20:52.937Z,22.25
2019-02-06T11:23:22.651Z,22.30
2019-02-06T11:25:52.502Z,23.27
2019-02-06T11:28:21.956Z,22.67
2019-02-06T11:30:51.459Z,21.95
2019-02-06T11:33:20.795Z,23.77
2019-02-06T11:35:50.231Z,22.62
2019-02-06T11:38:19.877Z,23.27
2019-02-06T11:40:49.409Z,22.23
2019-02-06T11:43:18.738Z,21.87
2019-02-06T11:45:48.088Z,21.45
2019-02-06T11:48:17.457Z,20.52
2019-02-06T11:50:46.785Z,19.90
2019-02-06T11:53:22.491Z,20.80
2019-02-06T11:55:52.292Z,21.55
2019-02-06T11:58:21.688Z,23.12
2019-02-06T12:01:12.614Z,21.48
2019-02-06T12:03:41.968Z,22.02
2019-02-06T12:06:11.750Z,22.40
2019-02-06T12:08:41.192Z,22.10
2019-02-06T12:11:10.599Z,20.08
2019-02-06T12:13:39.965Z,21.45
2019-02-06T12:16:09.517Z,15.15
2019-02-06T12:18:38.947Z,21.25
2019-02-06T12:21:08.725Z,23.40
2019-02-06T12:23:38.378Z,19.85
2019-02-06T12:26:07.761Z,21.60
2019-02-06T12:28:37.166Z,21.93
2019-02-06T12:31:06.663Z,23.40
2019-02-06T12:33:36.756Z,19.02
2019-02-06T12:36:06.358Z,22.42
2019-02-06T12:38:35.814Z,21.65
2019-02-06T12:41:05.467Z,20.52
2019-02-06T12:43:34.850Z,20.65
2019-02-06T12:46:04.407Z,25.23
2019-02-06T12:48:33.814Z,23.07
2019-02-06T12:51:03.135Z,23.90
2019-02-06T12:53:32.556Z,21.65
2019-02-06T12:56:01.894Z,25.37
2019-02-06T12:58:31.217Z,22.98
2019-02-06T13:01:00.958Z,25.65
2019-02-06T13:03:30.511Z,24.77
2019-02-06T13:05:59.886Z,24.07
2019-02-06T13:08:29.357Z,25.80
2019-02-06T13:10:59.133Z,23.67
2019-02-06T13:13:28.421Z,25.10
2019-02-06T13:15:57.863Z,25.40
2019-02-06T13:18:27.120Z,26.33
2019-02-06T13:20:56.550Z,24.45
2019-02-06T13:23:26.024Z,24.50
2019-02-06T13:25:55.801Z,26.80
2019-02-06T13:28:25.106Z,29.90
2019-02-06T13:30:54.428Z,24.95
2019-02-06T13:33:23.777Z,26.35
2019-02-06T13:35:53.093Z,31.68
2019-02-06T13:38:23.206Z,14.93
2019-02-06T13:40:52.853Z,29.23
2019-02-06T13:43:22.117Z,24.65
2019-02-06T13:45:51.638Z,26.45
2019-02-06T13:48:20.965Z,28.32
2019-02-06T13:50:50.339Z,23.98
2019-02-06T13:53:19.701Z,24.40
2019-02-06T13:55:49.502Z,18.87
2019-02-06T13:58:20.310Z,25.80
2019-02-06T14:00:52.263Z,23.90
2019-02-06T14:03:20.725Z,23.30
2019-02-06T14:05:50.140Z,25.25
2019-02-06T14:08:19.510Z,24.30
2019-02-06T14:10:58.612Z,23.80
2019-02-06T14:13:19.699Z,24.27
2019-02-06T14:15:49.817Z,26.12
2019-02-06T14:18:19.263Z,20.75
2019-02-06T14:20:51.788Z,25.30
2019-02-06T14:23:27.559Z,28.45
2019-02-06T14:26:18.271Z,26.15
2019-02-06T14:29:46.878Z,22.60
2019-02-06T14:33:00.403Z,21.77
2019-02-06T14:35:54.411Z,22.30
2019-02-06T14:39:00.216Z,21.02
2019-02-06T14:42:14.619Z,24.32
2019-02-06T14:45:18.912Z,23.38
2019-02-06T14:48:09.646Z,24.45
2019-02-06T14:51:11.436Z,17.25
2019-02-06T14:54:34.249Z,27.48
2019-02-06T14:57:44.994Z,25.82
2019-02-06T15:00:30.912Z,25.43
2019-02-06T15:03:25.547Z,26.82
2019-02-06T15:06:30.656Z,24.67
2019-02-06T15:09:49.949Z,28.20
2019-02-06T15:12:51.164Z,28.27
2019-02-06T15:15:50.460Z,29.87
2019-02-06T15:19:03.221Z,29.52
2019-02-06T15:21:50.654Z,30.77
2019-02-06T15:25:16.747Z,22.70
2019-02-06T15:28:25.835Z,30.05
2019-02-06T15:31:54.537Z,33.35
2019-02-06T15:35:08.860Z,32.50
2019-02-06T15:38:29.529Z,30.88
2019-02-06T15:41:33.647Z,32.48
2019-02-06T15:44:11.994Z,31.50
2019-02-06T15:47:28.670Z,30.55
2019-02-06T15:50:33.958Z,34.38
2019-02-06T15:53:59.900Z,33.80
2019-02-06T15:57:18.268Z,31.82
2019-02-06T16:00:10.965Z,31.75
2019-02-06T16:03:17.185Z,32.78
2019-02-06T16:06:37.658Z,34.48
2019-02-06T16:09:31.579Z,30.77
2019-02-06T16:12:48.408Z,32.58
2019-02-06T16:15:53.873Z,31.55
2019-02-06T16:18:45.393Z,30.37
2019-02-06T16:22:04.759Z,33.38
2019-02-06T16:24:59.772Z,31.87
2019-02-06T16:27:58.937Z,28.25
2019-02-06T16:30:56.032Z,32.58
2019-02-06T16:34:09.620Z,29.20
2019-02-06T16:37:12.104Z,28.05
2019-02-06T16:40:31.564Z,28.45
2019-02-06T16:43:42.584Z,29.57
2019-02-06T16:46:41.443Z,30.27
2019-02-06T16:49:35.295Z,21.65
2019-02-06T16:52:17.632Z,29.37
2019-02-06T16:55:20.990Z,29.40
2019-02-06T16:58:20.198Z,27.93
2019-02-06T17:01:22.457Z,23.32
2019-02-06T17:04:28.615Z,30.77
2019-02-06T17:07:29.476Z,27.45
2019-02-06T17:10:26.593Z,32.48
2019-02-06T17:13:19.054Z,32.80
2019-02-06T17:16:24.228Z,26.95
2019-02-06T17:19:28.871Z,26.40
2019-02-06T17:22:32.112Z,36.03
2019-02-06T17:25:45.431Z,34.98
2019-02-06T17:28:54.680Z,39.50
2019-02-06T17:32:15.277Z,38.80
2019-02-06T17:35:28.484Z,41.18
2019-02-06T17:38:43.302Z,38.17
2019-02-06T17:41:33.456Z,39.18
2019-02-06T17:44:36.645Z,35.15
2019-02-06T17:48:05.377Z,38.13
2019-02-06T17:51:06.297Z,43.80
2019-02-06T17:54:01.362Z,41.50
2019-02-06T17:56:30.702Z,34.73
2019-02-06T17:59:00.105Z,42.05
2019-02-06T18:01:41.394Z,44.03
2019-02-06T18:04:15.772Z,48.17
2019-02-06T18:06:45.372Z,45.38
2019-02-06T18:09:16.492Z,45.28
2019-02-06T18:11:46.943Z,43.25
2019-02-06T18:14:16.304Z,44.18
2019-02-06T18:16:45.582Z,42.60
2019-02-06T18:19:14.966Z,46.55
2019-02-06T18:21:44.533Z,45.17
2019-02-06T18:24:13.953Z,45.78
2019-02-06T18:26:47.744Z,45.63
2019-02-06T18:29:17.149Z,45.40
2019-02-06T18:31:46.477Z,38.40
2019-02-06T18:34:15.792Z,45.05
2019-02-06T18:36:45.199Z,44.70
2019-02-06T18:39:15.457Z,43.30
2019-02-06T18:41:44.806Z,41.13
2019-02-06T18:44:14.277Z,46.55
2019-02-06T18:46:43.704Z,51.23
2019-02-06T18:49:16.037Z,50.28
2019-02-06T18:51:45.844Z,47.70
2019-02-06T18:54:15.251Z,48.38
2019-02-06T18:56:45.187Z,47.93
2019-02-06T18:59:14.880Z,52.55
2019-02-06T19:01:46.789Z,50.40
2019-02-06T19:04:18.477Z,58.80
2019-02-06T19:06:48.169Z,61.75
2019-02-06T19:09:18.264Z,49.65
2019-02-06T19:11:47.762Z,46.95
2019-02-06T19:14:17.692Z,54.10
2019-02-06T19:16:47.047Z,51.02
2019-02-06T19:19:25.157Z,53.58
2019-02-06T19:21:47.431Z,51.88
2019-02-06T19:24:17.852Z,50.17
2019-02-06T19:26:47.430Z,48.05
2019-02-06T19:29:16.747Z,49.95
2019-02-06T19:31:46.437Z,46.40
2019-02-06T19:34:16.139Z,48.98
2019-02-06T19:36:45.519Z,46.55
2019-02-06T19:39:14.787Z,46.68
2019-02-06T19:41:44.320Z,43.92
2019-02-06T19:44:13.821Z,44.83
2019-02-06T19:46:43.139Z,43.58
2019-02-06T19:49:12.473Z,44.13
2019-02-06T19:51:41.801Z,43.23
2019-02-06T19:54:11.102Z,45.10
2019-02-06T19:56:40.493Z,45.38
2019-02-06T19:59:09.787Z,43.63
2019-02-06T20:01:39.111Z,42.95
2019-02-06T20:04:08.578Z,44.08
2019-02-06T20:06:38.183Z,42.73
2019-02-06T20:09:10.209Z,42.90
2019-02-06T20:11:39.441Z,46.37
2019-02-06T20:14:08.785Z,41.58
2019-02-06T20:16:38.121Z,43.83
2019-02-06T20:19:07.515Z,43.60
2019-02-06T20:21:36.815Z,44.73
2019-02-06T20:24:06.737Z,41.85
2019-02-06T20:26:36.036Z,40.60
2019-02-06T20:29:05.295Z,41.92
2019-02-06T20:31:34.679Z,42.35
2019-02-06T20:34:03.998Z,45.60
2019-02-06T20:36:33.236Z,44.63
2019-02-06T20:39:03.135Z,46.33
2019-02-06T20:41:32.471Z,42.83
2019-02-06T20:44:01.840Z,42.93
2019-02-06T20:46:31.331Z,42.25
2019-02-06T20:49:00.690Z,43.02
2019-02-06T20:51:29.915Z,42.30
2019-02-06T20:53:59.329Z,44.40
2019-02-06T20:56:29.370Z,42.17
2019-02-06T20:58:58.761Z,43.08
2019-02-06T21:01:28.300Z,41.42
2019-02-06T21:03:57.657Z,44.18
2019-02-06T21:06:27.032Z,42.45
2019-02-06T21:08:56.444Z,36.98
2019-02-06T21:11:25.733Z,44.88
2019-02-06T21:13:55.048Z,41.45
2019-02-06T21:16:24.407Z,41.50
2019-02-06T21:18:53.782Z,40.60
2019-02-06T21:21:23.218Z,48.60
2019-02-06T21:23:52.684Z,40.15
2019-02-06T21:26:22.039Z,41.05
2019-02-06T21:28:51.365Z,37.48
2019-02-06T21:31:20.783Z,39.10
2019-02-06T21:33:50.192Z,35.98
2019-02-06T21:36:19.582Z,41.08
2019-02-06T21:38:49.346Z,41.23
2019-02-06T21:41:18.729Z,42.58
2019-02-06T21:43:48.128Z,40.35
2019-02-06T21:46:17.458Z,40.40
2019-02-06T21:48:46.768Z,40.33
2019-02-06T21:51:16.222Z,41.55
2019-02-06T21:53:45.540Z,40.30
2019-02-06T21:56:14.850Z,36.83
2019-02-06T21:58:44.466Z,37.85
2019-02-06T22:01:13.866Z,35.55
2019-02-06T22:03:43.291Z,38.63
2019-02-06T22:06:12.631Z,34.60
2019-02-06T22:08:41.945Z,36.93
2019-02-06T22:11:11.476Z,37.53
2019-02-06T22:13:40.932Z,28.40
2019-02-06T22:16:10.307Z,35.70
2019-02-06T22:18:39.622Z,26.97
2019-02-06T22:21:09.093Z,36.03
2019-02-06T22:23:38.417Z,31.15
2019-02-06T22:26:07.757Z,34.58
2019-02-06T22:28:37.016Z,33.92
2019-02-06T22:31:06.344Z,35.20
2019-02-06T22:33:35.598Z,35.50
2019-02-06T22:36:04.894Z,30.88
2019-02-06T22:38:34.235Z,32.45
2019-02-06T22:41:04.548Z,33.53
2019-02-06T22:43:33.942Z,34.75
2019-02-06T22:46:03.241Z,34.00
2019-02-06T22:48:32.497Z,34.45
2019-02-06T22:51:01.873Z,34.18
2019-02-06T22:53:31.174Z,33.02
2019-02-06T22:56:00.480Z,33.00
2019-02-06T22:58:31.416Z,31.95
2019-02-06T23:01:39.655Z,31.80
2019-02-06T23:04:08.931Z,31.57
2019-02-06T23:06:38.175Z,32.13
2019-02-06T23:09:08.937Z,31.55
2019-02-06T23:11:38.250Z,33.88
2019-02-06T23:14:17.104Z,30.43
2019-02-06T23:16:38.495Z,30.02
2019-02-06T23:19:07.892Z,31.40
2019-02-06T23:21:37.201Z,31.07
2019-02-06T23:24:06.533Z,29.30
2019-02-06T23:26:36.007Z,30.57
2019-02-06T23:29:05.592Z,26.33
2019-02-06T23:31:35.112Z,29.05
2019-02-06T23:34:04.554Z,25.30
2019-02-06T23:36:33.840Z,28.02
2019-02-06T23:39:04.708Z,29.23
2019-02-06T23:41:34.074Z,27.77
2019-02-06T23:44:03.417Z,26.62
2019-02-06T23:46:33.027Z,26.15
2019-02-06T23:49:02.343Z,25.62
2019-02-06T23:51:31.790Z,25.68
2019-02-06T23:54:01.049Z,25.08
2019-02-06T23:56:30.441Z,25.20
2019-02-06T23:58:59.728Z,23.00
